createdAt,value
2017-11-03T00:18:28.862Z,8.78
2017-11-03T00:19:28.851Z,8.71
2017-11-03T00:20:28.825Z,8.71
2017-11-03T00:21:28.473Z,8.67
2017-11-03T00:22:28.769Z,8.67
2017-11-03T00:23:28.760Z,8.7
2017-11-03T00:24:28.722Z,8.73
2017-11-03T00:25:28.701Z,8.68
2017-11-03T00:26:28.673Z,8.6
2017-11-03T00:27:28.651Z,8.73
2017-11-03T00:28:28.631Z,8.65
2017-11-03T00:29:28.608Z,8.6
2017-11-03T00:30:28.581Z,8.55
2017-11-03T00:31:28.550Z,8.57
2017-11-03T00:32:28.207Z,8.5
2017-11-03T00:33:28.515Z,8.52
2017-11-03T00:34:28.477Z,8.57
2017-11-03T00:35:28.465Z,8.52
2017-11-03T00:36:28.430Z,8.5
2017-11-03T00:37:28.411Z,8.5
2017-11-03T00:38:28.383Z,8.47
2017-11-03T00:39:28.368Z,8.54
2017-11-03T00:40:28.336Z,8.49
2017-11-03T00:41:28.311Z,8.52
2017-11-03T00:42:28.298Z,8.57
2017-11-03T00:43:28.279Z,8.52
2017-11-03T00:44:28.236Z,8.52
2017-11-03T00:45:28.216Z,8.6
2017-11-03T00:46:28.194Z,8.52
2017-11-03T00:47:28.171Z,8.5
2017-11-03T00:48:28.138Z,8.5
2017-11-03T00:49:28.117Z,8.71
2017-11-03T00:50:28.093Z,8.65
2017-11-03T00:51:28.072Z,8.7
2017-11-03T00:52:28.045Z,8.6
2017-11-03T00:53:28.024Z,8.5
2017-11-03T00:54:27.993Z,8.58
2017-11-03T00:55:27.973Z,8.58
2017-11-03T00:56:27.953Z,8.57
2017-11-03T00:57:27.607Z,8.49
2017-11-03T00:58:27.908Z,8.52
2017-11-03T00:59:27.878Z,8.52
2017-11-03T01:00:27.857Z,8.58
2017-11-03T01:01:27.840Z,8.52
2017-11-03T01:02:27.805Z,8.52
2017-11-03T01:03:27.782Z,8.55
2017-11-03T01:04:27.432Z,8.54
2017-11-03T01:05:27.739Z,8.52
2017-11-03T01:06:27.702Z,8.5
2017-11-03T01:07:27.695Z,8.52
2017-11-03T01:08:27.662Z,8.67
2017-11-03T01:09:27.639Z,8.63
2017-11-03T01:10:27.605Z,8.6
2017-11-03T01:11:27.588Z,8.64
2017-11-03T01:12:27.559Z,8.61
2017-11-03T01:13:27.541Z,8.67
2017-11-03T01:14:27.510Z,8.68
2017-11-03T01:15:27.493Z,8.67
2017-11-03T01:16:27.467Z,8.7
2017-11-03T01:17:27.440Z,8.68
2017-11-03T01:18:27.420Z,8.7
2017-11-03T01:19:27.070Z,8.78
2017-11-03T01:20:27.372Z,8.79
2017-11-03T01:21:27.342Z,8.78
2017-11-03T01:22:27.329Z,8.76
2017-11-03T01:23:27.299Z,8.73
2017-11-03T01:24:27.285Z,8.76
2017-11-03T01:25:27.253Z,8.73
2017-11-03T01:26:27.229Z,8.79
2017-11-03T01:27:27.203Z,8.78
2017-11-03T01:28:27.178Z,8.8
2017-11-03T01:29:27.158Z,8.71
2017-11-03T01:30:27.131Z,8.78
2017-11-03T01:31:27.123Z,8.68
2017-11-03T01:32:27.076Z,8.7
2017-11-03T01:33:27.066Z,8.83
2017-11-03T01:34:27.026Z,8.71
2017-11-03T01:35:27.011Z,8.7
2017-11-03T01:36:26.667Z,8.75
2017-11-03T01:37:26.975Z,8.67
2017-11-03T01:38:26.941Z,8.68
2017-11-03T01:39:26.916Z,8.8
2017-11-03T01:40:26.889Z,8.71
2017-11-03T01:41:26.864Z,8.73
2017-11-03T01:42:26.837Z,8.65
2017-11-03T01:43:26.814Z,8.67
2017-11-03T01:44:26.792Z,8.65
2017-11-03T01:45:26.121Z,8.68
2017-11-03T01:46:26.741Z,8.65
2017-11-03T01:47:26.718Z,8.71
2017-11-03T01:48:26.707Z,8.68
2017-11-03T01:49:26.674Z,8.64
2017-11-03T01:50:26.335Z,8.68
2017-11-03T01:51:26.621Z,8.7
2017-11-03T01:52:26.607Z,8.68
2017-11-03T01:53:26.577Z,8.68
2017-11-03T01:54:26.566Z,8.67
2017-11-03T01:56:26.501Z,8.65
2017-11-03T01:57:26.478Z,8.6
2017-11-03T01:58:26.451Z,8.7
2017-11-03T01:59:26.436Z,8.52
2017-11-03T02:00:26.403Z,8.47
2017-11-03T02:01:26.381Z,8.54
2017-11-03T02:02:26.352Z,8.55
2017-11-03T02:03:26.341Z,8.57
2017-11-03T02:04:26.308Z,8.5
2017-11-03T02:05:26.288Z,8.5
2017-11-03T02:06:26.270Z,8.55
2017-11-03T02:07:26.234Z,8.47
2017-11-03T02:08:25.894Z,8.52
2017-11-03T02:09:26.183Z,8.57
2017-11-03T02:10:25.840Z,8.5
2017-11-03T02:11:25.818Z,8.46
2017-11-03T02:12:26.120Z,8.5
2017-11-03T02:13:26.094Z,8.52
2017-11-03T02:14:26.062Z,8.49
2017-11-03T02:15:26.047Z,8.54
2017-11-03T02:16:25.696Z,8.54
2017-11-03T02:17:25.989Z,8.57
2017-11-03T02:18:25.649Z,8.5
2017-11-03T02:19:25.948Z,8.55
2017-11-03T02:20:25.919Z,8.58
2017-11-03T02:21:25.898Z,8.52
2017-11-03T02:22:25.549Z,8.6
2017-11-03T02:23:25.847Z,8.5
2017-11-03T02:24:25.828Z,8.58
2017-11-03T02:25:25.800Z,8.52
2017-11-03T02:26:25.778Z,8.63
2017-11-03T02:27:25.746Z,8.61
2017-11-03T02:28:25.732Z,8.52
2017-11-03T02:29:25.714Z,8.58
2017-11-03T02:30:25.679Z,8.58
2017-11-03T02:31:25.331Z,8.57
2017-11-03T02:32:25.624Z,8.54
2017-11-03T02:33:25.602Z,8.55
2017-11-03T02:34:25.263Z,8.57
2017-11-03T02:35:25.776Z,8.49
2017-11-03T02:36:25.747Z,8.5
2017-11-03T02:37:25.710Z,8.57
2017-11-03T02:38:25.495Z,8.55
2017-11-03T02:39:25.883Z,8.57
2017-11-03T02:40:25.439Z,8.52
2017-11-03T02:41:25.089Z,8.55
2017-11-03T02:42:25.405Z,8.57
2017-11-03T02:43:25.394Z,8.52
2017-11-03T02:44:25.336Z,8.6
2017-11-03T02:45:25.317Z,8.55
2017-11-03T02:46:25.300Z,8.57
2017-11-03T02:47:25.264Z,8.54
2017-11-03T02:48:25.245Z,8.5
2017-11-03T02:49:25.215Z,8.57
2017-11-03T02:50:25.191Z,8.5
2017-11-03T02:51:25.171Z,8.5
2017-11-03T02:52:25.145Z,8.49
2017-11-03T02:53:25.117Z,8.45
2017-11-03T02:54:25.094Z,8.5
2017-11-03T02:55:25.080Z,8.47
2017-11-03T02:56:25.032Z,8.43
2017-11-03T02:57:25.013Z,8.43
2017-11-03T02:58:24.991Z,8.32
2017-11-03T02:59:24.650Z,8.31
2017-11-03T03:00:24.943Z,8.28
2017-11-03T03:01:24.914Z,8.32
2017-11-03T03:02:24.902Z,8.28
2017-11-03T03:03:24.863Z,8.31
2017-11-03T03:04:24.845Z,8.29
2017-11-03T03:05:24.505Z,8.28
2017-11-03T03:06:24.794Z,8.28
2017-11-03T03:07:24.447Z,8.24
2017-11-03T03:08:24.745Z,8.24
2017-11-03T03:09:24.716Z,8.2
2017-11-03T03:10:24.697Z,8.24
2017-11-03T03:11:24.363Z,8.22
2017-11-03T03:12:24.646Z,8.2
2017-11-03T03:13:24.631Z,8.21
2017-11-03T03:14:24.598Z,8.22
2017-11-03T03:15:24.576Z,8.22
2017-11-03T03:16:24.560Z,8.18
2017-11-03T03:17:24.534Z,8.18
2017-11-03T03:18:24.504Z,8.25
2017-11-03T03:19:24.480Z,8.21
2017-11-03T03:20:24.135Z,8.2
2017-11-03T03:21:24.424Z,8.22
2017-11-03T03:22:24.087Z,8.27
2017-11-03T03:23:24.379Z,8.25
2017-11-03T03:24:24.355Z,8.22
2017-11-03T03:25:24.333Z,8.25
2017-11-03T03:26:24.311Z,8.21
2017-11-03T03:27:24.290Z,8.21
2017-11-03T03:28:24.271Z,8.21
2017-11-03T03:29:24.236Z,8.21
2017-11-03T03:30:24.229Z,8.12
2017-11-03T03:31:24.192Z,8.18
2017-11-03T03:32:24.166Z,8.12
2017-11-03T03:33:23.815Z,8.06
2017-11-03T03:34:24.113Z,8.09
2017-11-03T03:35:24.093Z,8.17
2017-11-03T03:36:24.097Z,8.14
2017-11-03T03:37:24.061Z,8.18
2017-11-03T03:38:24.014Z,8.06
2017-11-03T03:39:23.991Z,8.1
2017-11-03T03:40:23.965Z,7.99
2017-11-03T03:41:23.945Z,8.07
2017-11-03T03:42:23.923Z,8.03
2017-11-03T03:43:23.896Z,8
2017-11-03T03:44:23.869Z,7.99
2017-11-03T03:45:23.848Z,8
2017-11-03T03:46:23.818Z,7.89
2017-11-03T03:47:23.797Z,7.95
2017-11-03T03:48:23.773Z,7.91
2017-11-03T03:49:23.743Z,7.92
2017-11-03T03:50:23.725Z,7.86
2017-11-03T03:51:23.699Z,7.92
2017-11-03T03:52:23.673Z,7.86
2017-11-03T03:53:23.650Z,7.89
2017-11-03T03:54:23.633Z,7.85
2017-11-03T03:55:23.599Z,7.79
2017-11-03T03:56:23.258Z,7.81
2017-11-03T03:57:23.548Z,7.77
2017-11-03T03:58:23.526Z,7.79
2017-11-03T03:59:23.512Z,7.82
2017-11-03T04:00:23.478Z,7.73
2017-11-03T04:01:23.459Z,7.81
2017-11-03T04:02:23.429Z,7.71
2017-11-03T04:03:23.419Z,7.7
2017-11-03T04:04:23.383Z,7.67
2017-11-03T04:05:23.037Z,7.67
2017-11-03T04:06:23.333Z,7.71
2017-11-03T04:07:23.312Z,7.67
2017-11-03T04:08:23.279Z,7.7
2017-11-03T04:09:23.265Z,7.73
2017-11-03T04:10:23.236Z,7.7
2017-11-03T04:11:23.221Z,7.7
2017-11-03T04:12:23.183Z,7.74
2017-11-03T04:13:23.162Z,7.63
2017-11-03T04:14:23.136Z,7.71
2017-11-03T04:15:23.113Z,7.73
2017-11-03T04:16:23.084Z,7.73
2017-11-03T04:17:23.059Z,7.7
2017-11-03T04:18:23.039Z,7.69
2017-11-03T04:19:23.012Z,7.7
2017-11-03T04:20:22.666Z,7.71
2017-11-03T04:21:22.963Z,7.7
2017-11-03T04:22:22.950Z,7.7
2017-11-03T04:23:22.908Z,7.7
2017-11-03T04:24:22.915Z,7.7
2017-11-03T04:25:23.079Z,7.66
2017-11-03T04:26:22.845Z,7.69
2017-11-03T04:27:22.813Z,7.71
2017-11-03T04:28:22.807Z,7.71
2017-11-03T04:29:23.117Z,7.73
2017-11-03T04:30:22.746Z,7.63
2017-11-03T04:31:22.726Z,7.66
2017-11-03T04:32:22.696Z,7.63
2017-11-03T04:33:22.352Z,7.69
2017-11-03T04:34:22.659Z,7.67
2017-11-03T04:35:22.623Z,7.71
2017-11-03T04:36:22.282Z,7.74
2017-11-03T04:37:22.575Z,7.69
2017-11-03T04:38:22.543Z,7.71
2017-11-03T04:39:22.526Z,7.7
2017-11-03T04:40:22.495Z,7.76
2017-11-03T04:41:22.477Z,7.73
2017-11-03T04:42:22.124Z,7.7
2017-11-03T04:43:22.428Z,7.74
2017-11-03T04:44:22.387Z,7.73
2017-11-03T04:45:22.381Z,7.81
2017-11-03T04:46:22.353Z,7.73
2017-11-03T04:47:22.325Z,7.74
2017-11-03T04:48:22.306Z,7.7
2017-11-03T04:49:22.282Z,7.71
2017-11-03T04:50:22.254Z,7.7
2017-11-03T04:51:22.228Z,7.74
2017-11-03T04:52:22.203Z,7.7
2017-11-03T04:53:22.180Z,7.7
2017-11-03T04:54:22.155Z,7.57
2017-11-03T04:55:22.129Z,7.62
2017-11-03T04:56:21.782Z,7.6
2017-11-03T04:57:22.081Z,7.71
2017-11-03T04:58:21.744Z,7.73
2017-11-03T04:59:22.026Z,7.76
2017-11-03T05:00:22.043Z,7.73
2017-11-03T05:01:21.989Z,7.67
2017-11-03T05:02:21.957Z,7.71
2017-11-03T05:03:21.937Z,7.66
2017-11-03T05:04:21.916Z,7.73
2017-11-03T05:05:21.899Z,7.71
2017-11-03T05:06:21.858Z,7.7
2017-11-03T05:07:21.836Z,7.73
2017-11-03T05:08:21.815Z,7.74
2017-11-03T05:09:22.136Z,7.73
2017-11-03T05:10:21.770Z,7.77
2017-11-03T05:11:21.418Z,7.85
2017-11-03T05:12:21.723Z,7.81
2017-11-03T05:13:21.692Z,7.92
2017-11-03T05:14:21.673Z,7.94
2017-11-03T05:15:21.648Z,7.89
2017-11-03T05:16:21.617Z,7.89
2017-11-03T05:17:21.594Z,7.92
2017-11-03T05:18:21.569Z,7.89
2017-11-03T05:19:21.552Z,7.88
2017-11-03T05:20:21.516Z,7.85
2017-11-03T05:21:21.495Z,7.94
2017-11-03T05:22:21.469Z,7.88
2017-11-03T05:23:21.442Z,7.85
2017-11-03T05:24:21.103Z,7.91
2017-11-03T05:25:21.404Z,7.94
2017-11-03T05:26:21.371Z,7.92
2017-11-03T05:27:21.386Z,7.84
2017-11-03T05:28:21.330Z,7.94
2017-11-03T05:29:21.291Z,7.89
2017-11-03T05:30:21.271Z,7.94
2017-11-03T05:31:21.248Z,7.86
2017-11-03T05:32:21.229Z,7.92
2017-11-03T05:33:20.879Z,7.89
2017-11-03T05:34:20.851Z,7.95
2017-11-03T05:35:21.154Z,7.91
2017-11-03T05:36:21.129Z,7.96
2017-11-03T05:37:21.126Z,7.89
2017-11-03T05:38:21.078Z,7.88
2017-11-03T05:39:21.408Z,7.95
2017-11-03T05:40:20.708Z,7.95
2017-11-03T05:41:21.005Z,8.02
2017-11-03T05:42:20.978Z,7.95
2017-11-03T05:43:20.954Z,7.96
2017-11-03T05:44:20.931Z,8.02
2017-11-03T05:45:20.904Z,8.02
2017-11-03T05:46:20.882Z,8.02
2017-11-03T05:47:20.866Z,8.04
2017-11-03T05:48:20.858Z,8.06
2017-11-03T05:49:20.809Z,7.95
2017-11-03T05:50:20.788Z,8.02
2017-11-03T05:51:20.759Z,8
2017-11-03T05:52:20.734Z,7.99
2017-11-03T05:53:20.713Z,7.95
2017-11-03T05:54:20.692Z,8.09
2017-11-03T05:55:20.659Z,8
2017-11-03T05:56:20.636Z,8.02
2017-11-03T05:57:20.612Z,8.02
2017-11-03T05:58:20.588Z,8.07
2017-11-03T05:59:20.602Z,8.04
2017-11-03T06:00:20.555Z,8.06
2017-11-03T06:01:20.518Z,8
2017-11-03T06:02:20.491Z,7.96
2017-11-03T06:03:20.466Z,7.95
2017-11-03T06:04:20.446Z,8.02
2017-11-03T06:05:20.100Z,8.09
2017-11-03T06:06:20.076Z,8
2017-11-03T06:07:20.377Z,8.03
2017-11-03T06:08:20.347Z,7.99
2017-11-03T06:09:20.316Z,8
2017-11-03T06:10:20.295Z,8.03
2017-11-03T06:11:20.275Z,8.17
2017-11-03T06:12:20.245Z,8
2017-11-03T06:13:20.222Z,7.96
2017-11-03T06:14:20.191Z,8.02
2017-11-03T06:15:20.170Z,8.09
2017-11-03T06:16:20.158Z,8.12
2017-11-03T06:17:19.808Z,8.14
2017-11-03T06:18:20.105Z,8.12
2017-11-03T06:19:20.075Z,8.12
2017-11-03T06:20:20.049Z,8.06
2017-11-03T06:21:20.029Z,8.07
2017-11-03T06:22:20.008Z,8.12
2017-11-03T06:23:20.323Z,8.13
2017-11-03T06:24:19.952Z,8.21
2017-11-03T06:25:19.945Z,8.1
2017-11-03T06:26:19.913Z,8.1
2017-11-03T06:27:19.889Z,8.09
2017-11-03T06:28:19.858Z,8.09
2017-11-03T06:29:19.538Z,8.13
2017-11-03T06:30:19.492Z,8.1
2017-11-03T06:31:19.792Z,8.09
2017-11-03T06:32:19.436Z,8.21
2017-11-03T06:33:19.830Z,8.2
2017-11-03T06:34:19.719Z,8.24
2017-11-03T06:35:19.687Z,8.13
2017-11-03T06:36:19.669Z,8.27
2017-11-03T06:37:19.647Z,8.21
2017-11-03T06:38:19.615Z,8.24
2017-11-03T06:39:19.586Z,8.25
2017-11-03T06:40:19.567Z,8.22
2017-11-03T06:41:19.541Z,8.22
2017-11-03T06:42:19.531Z,8.24
2017-11-03T06:43:19.517Z,8.17
2017-11-03T06:44:19.473Z,8.25
2017-11-03T06:45:19.123Z,8.22
2017-11-03T06:46:19.435Z,8.14
2017-11-03T06:47:19.079Z,8.27
2017-11-03T06:48:19.375Z,8.25
2017-11-03T06:49:19.358Z,8.25
2017-11-03T06:50:19.321Z,8.29
2017-11-03T06:51:19.316Z,8.34
2017-11-03T06:52:19.285Z,8.29
2017-11-03T06:53:19.251Z,8.36
2017-11-03T06:54:19.230Z,8.32
2017-11-03T06:55:19.205Z,8.29
2017-11-03T06:56:18.859Z,8.31
2017-11-03T06:57:19.164Z,8.34
2017-11-03T06:58:19.148Z,8.32
2017-11-03T06:59:18.790Z,8.32
2017-11-03T07:00:19.085Z,8.42
2017-11-03T07:01:18.742Z,8.4
2017-11-03T07:02:19.033Z,8.46
2017-11-03T07:03:19.009Z,8.46
2017-11-03T07:04:18.984Z,8.45
2017-11-03T07:05:18.961Z,8.4
2017-11-03T07:06:19.291Z,8.5
2017-11-03T07:07:18.915Z,8.5
2017-11-03T07:08:18.890Z,8.46
2017-11-03T07:09:18.879Z,8.49
2017-11-03T07:10:18.847Z,8.54
2017-11-03T07:11:18.495Z,8.58
2017-11-03T07:12:18.473Z,8.6
2017-11-03T07:13:18.777Z,8.55
2017-11-03T07:14:18.766Z,8.52
2017-11-03T07:15:18.744Z,8.5
2017-11-03T07:16:18.700Z,8.54
2017-11-03T07:17:18.672Z,8.63
2017-11-03T07:18:18.645Z,8.5
2017-11-03T07:19:18.621Z,8.64
2017-11-03T07:20:18.275Z,8.6
2017-11-03T07:21:18.583Z,8.64
2017-11-03T07:22:18.553Z,8.68
2017-11-03T07:23:18.536Z,8.7
2017-11-03T07:24:18.496Z,8.7
2017-11-03T07:25:18.488Z,8.65
2017-11-03T07:26:18.460Z,8.85
2017-11-03T07:27:18.432Z,8.78
2017-11-03T07:28:18.409Z,8.71
2017-11-03T07:29:18.381Z,8.78
2017-11-03T07:30:18.360Z,8.75
2017-11-03T07:31:18.338Z,8.79
2017-11-03T07:32:18.308Z,8.76
2017-11-03T07:33:18.282Z,8.76
2017-11-03T07:34:18.253Z,8.75
2017-11-03T07:35:18.232Z,8.75
2017-11-03T07:36:18.221Z,8.78
2017-11-03T07:37:18.192Z,8.88
2017-11-03T07:38:17.844Z,8.8
2017-11-03T07:39:18.146Z,8.86
2017-11-03T07:40:18.104Z,8.82
2017-11-03T07:41:18.086Z,8.89
2017-11-03T07:42:18.073Z,8.93
2017-11-03T07:43:18.047Z,8.94
2017-11-03T07:44:18.042Z,8.98
2017-11-03T07:45:18.000Z,9
2017-11-03T07:46:17.975Z,8.94
2017-11-03T07:47:17.953Z,8.91
2017-11-03T07:48:17.936Z,8.91
2017-11-03T07:49:17.900Z,9.03
2017-11-03T07:50:17.877Z,9.08
2017-11-03T07:51:17.855Z,9.13
2017-11-03T07:52:17.837Z,9.13
2017-11-03T07:53:17.804Z,9.24
2017-11-03T07:54:17.779Z,9.19
2017-11-03T07:55:17.763Z,9.26
2017-11-03T07:56:17.730Z,9.24
2017-11-03T07:57:17.715Z,9.27
2017-11-03T07:58:17.700Z,9.32
2017-11-03T07:59:17.663Z,9.31
2017-11-03T08:00:17.638Z,9.35
2017-11-03T08:01:17.294Z,9.37
2017-11-03T08:02:17.595Z,9.35
2017-11-03T08:03:17.581Z,9.42
2017-11-03T08:04:17.545Z,9.38
2017-11-03T08:05:17.520Z,9.38
2017-11-03T08:06:17.501Z,9.44
2017-11-03T08:07:17.484Z,9.48
2017-11-03T08:08:17.459Z,9.41
2017-11-03T08:09:17.430Z,9.38
2017-11-03T08:10:17.392Z,9.41
2017-11-03T08:11:17.375Z,9.55
2017-11-03T08:12:17.044Z,9.52
2017-11-03T08:13:17.334Z,9.55
2017-11-03T08:14:17.316Z,9.49
2017-11-03T08:15:17.287Z,9.52
2017-11-03T08:16:17.260Z,9.59
2017-11-03T08:17:17.235Z,9.56
2017-11-03T08:18:17.211Z,9.55
2017-11-03T08:19:17.189Z,9.59
2017-11-03T08:20:16.850Z,9.65
2017-11-03T08:21:17.134Z,9.67
2017-11-03T08:22:17.129Z,9.62
2017-11-03T08:23:17.101Z,9.7
2017-11-03T08:24:17.084Z,9.7
2017-11-03T08:25:17.062Z,9.74
2017-11-03T08:26:17.026Z,9.78
2017-11-03T08:27:17.000Z,9.8
2017-11-03T08:28:16.969Z,9.81
2017-11-03T08:29:16.641Z,9.85
2017-11-03T08:30:16.926Z,9.81
2017-11-03T08:31:16.912Z,9.86
2017-11-03T08:32:16.882Z,9.92
2017-11-03T08:33:16.860Z,9.91
2017-11-03T08:34:16.511Z,9.92
2017-11-03T08:35:16.816Z,9.96
2017-11-03T08:36:16.784Z,9.93
2017-11-03T08:37:16.446Z,10.02
2017-11-03T08:38:16.746Z,10.1
2017-11-03T08:39:16.718Z,10.01
2017-11-03T08:40:16.372Z,10.1
2017-11-03T08:41:16.721Z,10.06
2017-11-03T08:42:16.327Z,10.14
2017-11-03T08:43:16.626Z,10.1
2017-11-03T08:44:16.309Z,10.04
2017-11-03T08:45:16.586Z,10.09
2017-11-03T08:46:16.562Z,10.1
2017-11-03T08:47:16.209Z,10.11
2017-11-03T08:48:16.516Z,10.1
2017-11-03T08:49:16.518Z,10.16
2017-11-03T08:50:16.466Z,10.18
2017-11-03T08:51:16.430Z,10.18
2017-11-03T08:52:16.419Z,10.18
2017-11-03T08:53:16.390Z,10.22
2017-11-03T08:54:16.370Z,10.26
2017-11-03T08:55:16.492Z,10.28
2017-11-03T08:56:16.325Z,10.26
2017-11-03T08:57:16.296Z,10.25
2017-11-03T08:58:15.955Z,10.35
2017-11-03T08:59:15.943Z,10.36
2017-11-03T09:00:16.240Z,10.39
2017-11-03T09:01:16.202Z,10.47
2017-11-03T09:02:16.187Z,10.43
2017-11-03T09:03:16.155Z,10.55
2017-11-03T09:04:16.132Z,10.47
2017-11-03T09:05:16.111Z,10.55
2017-11-03T09:06:16.088Z,10.55
2017-11-03T09:07:15.752Z,10.63
2017-11-03T09:08:16.071Z,10.55
2017-11-03T09:09:16.028Z,10.63
2017-11-03T09:10:15.993Z,10.62
2017-11-03T09:11:15.659Z,10.69
2017-11-03T09:12:15.958Z,10.81
2017-11-03T09:13:15.955Z,10.81
2017-11-03T09:14:15.901Z,10.84
2017-11-03T09:15:15.878Z,10.75
2017-11-03T09:16:15.866Z,10.83
2017-11-03T09:17:15.831Z,10.9
2017-11-03T09:18:15.813Z,10.93
2017-11-03T09:19:15.781Z,10.81
2017-11-03T09:20:15.760Z,10.95
2017-11-03T09:21:15.738Z,10.94
2017-11-03T09:22:15.719Z,10.99
2017-11-03T09:23:15.690Z,10.99
2017-11-03T09:24:15.673Z,11.09
2017-11-03T09:25:15.653Z,11.01
2017-11-03T09:26:15.621Z,11.13
2017-11-03T09:27:15.287Z,11.12
2017-11-03T09:28:15.583Z,11.16
2017-11-03T09:29:15.554Z,11.28
2017-11-03T09:30:15.541Z,11.23
2017-11-03T09:31:15.505Z,11.27
2017-11-03T09:32:15.162Z,11.23
2017-11-03T09:33:15.524Z,11.23
2017-11-03T09:34:15.450Z,11.23
2017-11-03T09:35:15.424Z,11.16
2017-11-03T09:36:15.408Z,11.26
2017-11-03T09:37:15.435Z,11.33
2017-11-03T09:38:15.354Z,11.41
2017-11-03T09:39:15.012Z,11.41
2017-11-03T09:40:15.306Z,11.41
2017-11-03T09:41:15.283Z,11.41
2017-11-03T09:42:15.269Z,11.41
2017-11-03T09:43:15.233Z,11.41
2017-11-03T09:44:15.210Z,11.57
2017-11-03T09:45:15.188Z,11.48
2017-11-03T09:46:15.175Z,11.49
2017-11-03T09:47:15.147Z,11.56
2017-11-03T09:48:15.131Z,11.59
2017-11-03T09:49:15.104Z,11.6
2017-11-03T09:50:15.084Z,11.6
2017-11-03T09:51:15.079Z,11.56
2017-11-03T09:52:15.030Z,11.72
2017-11-03T09:53:15.035Z,11.66
2017-11-03T09:54:14.998Z,11.74
2017-11-03T09:55:14.975Z,11.77
2017-11-03T09:56:14.634Z,11.7
2017-11-03T09:57:14.601Z,11.72
2017-11-03T09:58:14.904Z,11.74
2017-11-03T09:59:14.561Z,11.72
2017-11-03T10:00:14.861Z,11.74
2017-11-03T10:01:14.510Z,11.75
2017-11-03T10:02:14.807Z,11.75
2017-11-03T10:03:14.785Z,11.77
2017-11-03T10:04:14.763Z,11.75
2017-11-03T10:05:14.747Z,11.7
2017-11-03T10:06:14.731Z,11.7
2017-11-03T10:07:14.696Z,11.67
2017-11-03T10:08:14.353Z,11.72
2017-11-03T10:09:14.658Z,11.74
2017-11-03T10:10:14.626Z,11.75
2017-11-03T10:11:14.603Z,11.72
2017-11-03T10:12:14.945Z,11.77
2017-11-03T10:13:14.566Z,11.75
2017-11-03T10:14:14.538Z,11.7
2017-11-03T10:15:14.518Z,11.75
2017-11-03T10:16:14.501Z,11.7
2017-11-03T10:17:14.485Z,11.72
2017-11-03T10:18:14.449Z,11.75
2017-11-03T10:19:14.420Z,11.72
2017-11-03T10:20:14.403Z,11.79
2017-11-03T10:21:14.378Z,11.82
2017-11-03T10:22:14.362Z,11.81
2017-11-03T10:23:14.335Z,11.78
2017-11-03T10:24:14.322Z,11.74
2017-11-03T10:25:13.966Z,11.69
2017-11-03T10:26:14.636Z,11.74
2017-11-03T10:27:14.247Z,11.74
2017-11-03T10:28:14.225Z,11.75
2017-11-03T10:29:14.207Z,11.77
2017-11-03T10:30:14.174Z,11.84
2017-11-03T10:31:14.151Z,11.84
2017-11-03T10:32:14.183Z,11.96
2017-11-03T10:33:14.107Z,12
2017-11-03T10:34:14.092Z,12.03
2017-11-03T10:35:14.061Z,12.08
2017-11-03T10:36:14.042Z,12.03
2017-11-03T10:37:14.023Z,12.08
2017-11-03T10:38:13.997Z,12.07
2017-11-03T10:39:13.979Z,12.04
2017-11-03T10:40:13.639Z,12.15
2017-11-03T10:41:13.926Z,12.05
2017-11-03T10:42:13.902Z,12.16
2017-11-03T10:43:13.885Z,12.19
2017-11-03T10:44:13.869Z,12.08
2017-11-03T10:45:13.525Z,12.08
2017-11-03T10:46:13.816Z,12.18
2017-11-03T10:47:13.799Z,12.21
2017-11-03T10:48:13.784Z,12.08
2017-11-03T10:49:13.434Z,12.11
2017-11-03T10:50:13.736Z,12.12
2017-11-03T10:51:13.718Z,12.08
2017-11-03T10:52:13.707Z,12.13
2017-11-03T10:53:13.660Z,12.15
2017-11-03T10:54:13.637Z,12.15
2017-11-03T10:55:13.303Z,12.18
2017-11-03T10:56:13.593Z,12.15
2017-11-03T10:57:13.575Z,12.21
2017-11-03T10:58:13.544Z,12.19
2017-11-03T10:59:13.538Z,12.21
2017-11-03T11:00:13.520Z,12.23
2017-11-03T11:01:13.495Z,12.19
2017-11-03T11:02:13.466Z,12.15
2017-11-03T11:03:13.436Z,12.23
2017-11-03T11:04:13.421Z,12.21
2017-11-03T11:05:13.391Z,12.19
2017-11-03T11:06:13.369Z,12.36
2017-11-03T11:07:13.353Z,12.3
2017-11-03T11:08:13.347Z,12.3
2017-11-03T11:09:13.312Z,12.19
2017-11-03T11:10:13.286Z,12.29
2017-11-03T11:11:13.251Z,12.29
2017-11-03T11:12:13.241Z,12.33
2017-11-03T11:13:13.215Z,12.33
2017-11-03T11:14:13.189Z,12.4
2017-11-03T11:15:13.169Z,12.4
2017-11-03T11:16:13.155Z,12.55
2017-11-03T11:17:12.802Z,12.46
2017-11-03T11:18:13.103Z,12.52
2017-11-03T11:19:13.086Z,12.49
2017-11-03T11:20:13.077Z,12.46
2017-11-03T11:21:12.716Z,12.41
2017-11-03T11:22:13.032Z,12.43
2017-11-03T11:23:12.987Z,12.56
2017-11-03T11:24:12.666Z,12.54
2017-11-03T11:25:12.941Z,12.51
2017-11-03T11:26:12.925Z,12.55
2017-11-03T11:27:12.900Z,12.55
2017-11-03T11:28:12.556Z,12.56
2017-11-03T11:29:12.858Z,12.51
2017-11-03T11:30:12.833Z,12.55
2017-11-03T11:31:12.818Z,12.54
2017-11-03T11:32:12.788Z,12.49
2017-11-03T11:33:12.763Z,12.55
2017-11-03T11:34:12.748Z,12.63
2017-11-03T11:35:12.721Z,12.66
2017-11-03T11:36:12.701Z,12.59
2017-11-03T11:37:12.673Z,12.61
2017-11-03T11:38:12.656Z,12.67
2017-11-03T11:39:12.632Z,12.63
2017-11-03T11:40:12.612Z,12.7
2017-11-03T11:41:12.589Z,12.73
2017-11-03T11:42:12.586Z,12.71
2017-11-03T11:43:12.538Z,12.69
2017-11-03T11:44:12.525Z,12.66
2017-11-03T11:45:12.505Z,12.74
2017-11-03T11:46:12.473Z,12.74
2017-11-03T11:47:12.448Z,12.7
2017-11-03T11:48:12.430Z,12.74
2017-11-03T11:49:12.417Z,12.7
2017-11-03T11:50:12.381Z,12.76
2017-11-03T11:51:12.373Z,12.66
2017-11-03T11:52:12.344Z,12.7
2017-11-03T11:53:12.324Z,12.73
2017-11-03T11:54:12.298Z,12.76
2017-11-03T11:55:12.272Z,12.73
2017-11-03T11:56:12.250Z,12.74
2017-11-03T11:57:12.238Z,12.77
2017-11-03T11:58:12.220Z,12.84
2017-11-03T11:59:12.189Z,12.8
2017-11-03T12:00:12.177Z,12.81
2017-11-03T12:01:12.154Z,12.74
2017-11-03T12:02:12.116Z,12.74
2017-11-03T12:03:12.097Z,12.81
2017-11-03T12:04:12.075Z,12.74
2017-11-03T12:05:11.740Z,12.8
2017-11-03T12:06:11.393Z,12.73
2017-11-03T12:07:12.011Z,12.77
2017-11-03T12:08:11.993Z,12.76
2017-11-03T12:09:11.967Z,12.79
2017-11-03T12:10:11.952Z,12.8
2017-11-03T12:11:11.927Z,12.77
2017-11-03T12:12:11.902Z,12.74
2017-11-03T12:13:12.225Z,12.74
2017-11-03T12:14:11.855Z,12.73
2017-11-03T12:15:11.841Z,12.74
2017-11-03T12:16:11.194Z,12.84
2017-11-03T12:17:11.464Z,12.8
2017-11-03T12:18:11.769Z,12.76
2017-11-03T12:19:11.751Z,12.74
2017-11-03T12:20:11.741Z,12.73
2017-11-03T12:21:11.393Z,12.79
2017-11-03T12:22:11.691Z,12.8
2017-11-03T12:23:11.652Z,12.73
2017-11-03T12:24:11.635Z,12.87
2017-11-03T12:25:11.622Z,12.85
2017-11-03T12:26:11.265Z,12.74
2017-11-03T12:27:11.265Z,12.89
2017-11-03T12:28:11.548Z,12.81
2017-11-03T12:29:11.532Z,12.94
2017-11-03T12:30:10.863Z,12.88
2017-11-03T12:31:11.156Z,12.92
2017-11-03T12:32:11.478Z,12.89
2017-11-03T12:33:11.437Z,12.85
2017-11-03T12:34:11.413Z,12.91
2017-11-03T12:35:11.397Z,12.98
2017-11-03T12:36:11.396Z,12.95
2017-11-03T12:37:11.342Z,12.95
2017-11-03T12:38:11.315Z,13.04
2017-11-03T12:39:10.977Z,12.96
2017-11-03T12:40:11.299Z,13.04
2017-11-03T12:41:11.285Z,13.04
2017-11-03T12:42:11.235Z,12.99
2017-11-03T12:43:11.222Z,12.99
2017-11-03T12:44:11.186Z,13.01
2017-11-03T12:45:11.187Z,12.89
2017-11-03T12:46:11.166Z,12.88
2017-11-03T12:47:11.130Z,12.88
2017-11-03T12:48:10.783Z,12.84
2017-11-03T12:49:10.770Z,12.88
2017-11-03T12:50:10.742Z,12.88
2017-11-03T12:51:11.036Z,12.84
2017-11-03T12:52:11.022Z,12.87
2017-11-03T12:53:10.664Z,12.84
2017-11-03T12:54:10.965Z,12.85
2017-11-03T12:55:10.935Z,12.85
2017-11-03T12:56:10.936Z,12.91
2017-11-03T12:57:10.908Z,12.91
2017-11-03T12:58:10.570Z,12.88
2017-11-03T12:59:10.868Z,12.89
2017-11-03T13:00:10.544Z,12.91
2017-11-03T13:01:10.822Z,12.87
2017-11-03T13:02:10.794Z,12.88
2017-11-03T13:03:10.458Z,12.88
2017-11-03T13:04:10.123Z,12.89
2017-11-03T13:05:10.399Z,12.99
2017-11-03T13:06:10.697Z,12.92
2017-11-03T13:07:10.672Z,13.04
2017-11-03T13:08:10.652Z,13.01
2017-11-03T13:09:10.627Z,12.94
2017-11-03T13:10:10.611Z,13.03
2017-11-03T13:11:10.581Z,13.06
2017-11-03T13:12:10.557Z,13.01
2017-11-03T13:13:10.545Z,13.04
2017-11-03T13:14:10.518Z,12.99
2017-11-03T13:15:10.495Z,13.1
2017-11-03T13:16:10.156Z,12.99
2017-11-03T13:17:10.455Z,12.98
2017-11-03T13:18:10.431Z,12.99
2017-11-03T13:19:10.411Z,12.95
2017-11-03T13:20:10.432Z,12.98
2017-11-03T13:21:10.363Z,12.96
2017-11-03T13:22:10.335Z,12.98
2017-11-03T13:23:10.314Z,12.89
2017-11-03T13:24:10.298Z,12.88
2017-11-03T13:25:10.272Z,12.98
2017-11-03T13:26:10.249Z,12.85
2017-11-03T13:27:10.236Z,12.94
2017-11-03T13:28:10.575Z,12.89
2017-11-03T13:29:10.182Z,12.94
2017-11-03T13:30:10.164Z,12.92
2017-11-03T13:31:10.153Z,12.91
2017-11-03T13:32:10.123Z,12.96